sensor_id;sensor_type;location;lat;lon;timestamp;temperature;humidity
70676;DHT22;59069;52.242;20.900;2023-08-17T00:01:38;26.32;62.64
70676;DHT22;59069;52.242;20.900;2023-08-17T00:04:03;26.29;62.60
70676;DHT22;59069;52.242;20.900;2023-08-17T00:06:28;26.31;62.70
70676;DHT22;59069;52.242;20.900;2023-08-17T00:08:54;26.29;62.81
70676;DHT22;59069;52.242;20.900;2023-08-17T00:11:19;26.29;62.91
70676;DHT22;59069;52.242;20.900;2023-08-17T00:13:45;26.29;62.99
70676;DHT22;59069;52.242;20.900;2023-08-17T00:16:10;26.26;63.06
70676;DHT22;59069;52.242;20.900;2023-08-17T00:18:35;26.26;63.26
70676;DHT22;59069;52.242;20.900;2023-08-17T00:21:01;26.22;63.33
70676;DHT22;59069;52.242;20.900;2023-08-17T00:23:26;26.24;63.42
70676;DHT22;59069;52.242;20.900;2023-08-17T00:25:52;26.24;63.48
70676;DHT22;59069;52.242;20.900;2023-08-17T00:28:18;26.19;63.51
70676;DHT22;59069;52.242;20.900;2023-08-17T00:30:43;26.19;63.62
70676;DHT22;59069;52.242;20.900;2023-08-17T00:33:08;26.19;63.66
70676;DHT22;59069;52.242;20.900;2023-08-17T00:35:34;26.18;63.75
70676;DHT22;59069;52.242;20.900;2023-08-17T00:37:59;26.14;63.88
70676;DHT22;59069;52.242;20.900;2023-08-17T00:40:25;26.14;64.03
70676;DHT22;59069;52.242;20.900;2023-08-17T00:42:50;26.11;64.07
70676;DHT22;59069;52.242;20.900;2023-08-17T00:45:17;26.09;64.19
70676;DHT22;59069;52.242;20.900;2023-08-17T00:47:43;26.06;64.32
70676;DHT22;59069;52.242;20.900;2023-08-17T00:50:10;26.06;64.43
70676;DHT22;59069;52.242;20.900;2023-08-17T00:52:35;26.04;64.58
70676;DHT22;59069;52.242;20.900;2023-08-17T00:55:02;26.01;64.67
70676;DHT22;59069;52.242;20.900;2023-08-17T00:57:28;26.01;64.73
70676;DHT22;59069;52.242;20.900;2023-08-17T00:59:53;26.01;64.81
70676;DHT22;59069;52.242;20.900;2023-08-17T01:02:19;26.01;64.85
70676;DHT22;59069;52.242;20.900;2023-08-17T01:04:44;26.02;64.92
70676;DHT22;59069;52.242;20.900;2023-08-17T01:07:10;25.98;64.98
70676;DHT22;59069;52.242;20.900;2023-08-17T01:09:36;25.95;65.04
70676;DHT22;59069;52.242;20.900;2023-08-17T01:14:39;25.92;65.30
70676;DHT22;59069;52.242;20.900;2023-08-17T01:17:28;25.92;65.45
70676;DHT22;59069;52.242;20.900;2023-08-17T01:19:56;25.90;65.52
70676;DHT22;59069;52.242;20.900;2023-08-17T01:22:23;25.88;65.71
70676;DHT22;59069;52.242;20.900;2023-08-17T01:24:49;25.84;65.82
70676;DHT22;59069;52.242;20.900;2023-08-17T01:27:15;25.84;66.01
70676;DHT22;59069;52.242;20.900;2023-08-17T01:29:41;25.82;66.16
70676;DHT22;59069;52.242;20.900;2023-08-17T01:32:17;25.81;66.23
70676;DHT22;59069;52.242;20.900;2023-08-17T01:35:04;25.78;66.38
70676;DHT22;59069;52.242;20.900;2023-08-17T01:37:34;25.75;66.42
70676;DHT22;59069;52.242;20.900;2023-08-17T01:40:03;25.77;66.43
70676;DHT22;59069;52.242;20.900;2023-08-17T01:42:30;25.73;66.57
70676;DHT22;59069;52.242;20.900;2023-08-17T01:44:56;25.70;66.85
70676;DHT22;59069;52.242;20.900;2023-08-17T01:47:21;25.68;67.01
70676;DHT22;59069;52.242;20.900;2023-08-17T01:49:47;25.68;66.99
70676;DHT22;59069;52.242;20.900;2023-08-17T01:52:13;25.66;67.11
70676;DHT22;59069;52.242;20.900;2023-08-17T01:54:38;25.64;67.22
70676;DHT22;59069;52.242;20.900;2023-08-17T01:57:03;25.64;67.31
70676;DHT22;59069;52.242;20.900;2023-08-17T01:59:29;25.63;67.38
70676;DHT22;59069;52.242;20.900;2023-08-17T02:01:54;25.60;67.43
70676;DHT22;59069;52.242;20.900;2023-08-17T02:04:20;25.60;67.48
70676;DHT22;59069;52.242;20.900;2023-08-17T02:06:45;25.59;67.52
70676;DHT22;59069;52.242;20.900;2023-08-17T02:09:10;25.59;67.63
70676;DHT22;59069;52.242;20.900;2023-08-17T02:11:36;25.56;67.69
70676;DHT22;59069;52.242;20.900;2023-08-17T02:14:01;25.56;67.83
70676;DHT22;59069;52.242;20.900;2023-08-17T02:16:27;25.54;67.93
70676;DHT22;59069;52.242;20.900;2023-08-17T02:18:52;25.53;68.06
70676;DHT22;59069;52.242;20.900;2023-08-17T02:21:17;25.49;68.07
70676;DHT22;59069;52.242;20.900;2023-08-17T02:23:43;25.47;68.07
70676;DHT22;59069;52.242;20.900;2023-08-17T02:26:08;25.47;68.09
70676;DHT22;59069;52.242;20.900;2023-08-17T02:28:33;25.46;68.15
70676;DHT22;59069;52.242;20.900;2023-08-17T02:30:59;25.44;68.19
70676;DHT22;59069;52.242;20.900;2023-08-17T02:33:24;25.44;68.23
70676;DHT22;59069;52.242;20.900;2023-08-17T02:35:50;25.43;68.31
70676;DHT22;59069;52.242;20.900;2023-08-17T02:38:17;25.43;68.32
70676;DHT22;59069;52.242;20.900;2023-08-17T02:40:43;25.41;68.44
70676;DHT22;59069;52.242;20.900;2023-08-17T02:43:09;25.37;68.47
70676;DHT22;59069;52.242;20.900;2023-08-17T02:45:35;25.37;68.56
70676;DHT22;59069;52.242;20.900;2023-08-17T02:48:00;25.33;68.69
70676;DHT22;59069;52.242;20.900;2023-08-17T02:50:25;25.31;68.76
70676;DHT22;59069;52.242;20.900;2023-08-17T02:52:51;25.27;68.85
70676;DHT22;59069;52.242;20.900;2023-08-17T02:55:16;25.27;68.83
70676;DHT22;59069;52.242;20.900;2023-08-17T02:57:42;25.27;68.87
70676;DHT22;59069;52.242;20.900;2023-08-17T03:00:07;25.24;68.94
70676;DHT22;59069;52.242;20.900;2023-08-17T03:02:33;25.20;68.92
70676;DHT22;59069;52.242;20.900;2023-08-17T03:04:59;25.20;68.88
70676;DHT22;59069;52.242;20.900;2023-08-17T03:07:24;25.20;68.87
70676;DHT22;59069;52.242;20.900;2023-08-17T03:09:50;25.20;68.89
70676;DHT22;59069;52.242;20.900;2023-08-17T03:12:15;25.18;68.92
70676;DHT22;59069;52.242;20.900;2023-08-17T03:14:40;25.16;68.91
70676;DHT22;59069;52.242;20.900;2023-08-17T03:17:06;25.16;68.99
70676;DHT22;59069;52.242;20.900;2023-08-17T03:19:31;25.12;69.06
70676;DHT22;59069;52.242;20.900;2023-08-17T03:21:56;25.12;69.12
70676;DHT22;59069;52.242;20.900;2023-08-17T03:24:22;25.06;69.10
70676;DHT22;59069;52.242;20.900;2023-08-17T03:26:47;25.05;69.07
70676;DHT22;59069;52.242;20.900;2023-08-17T03:29:13;24.99;69.07
70676;DHT22;59069;52.242;20.900;2023-08-17T03:31:38;24.98;69.07
70676;DHT22;59069;52.242;20.900;2023-08-17T03:34:03;24.99;69.20
70676;DHT22;59069;52.242;20.900;2023-08-17T03:36:29;24.96;69.35
70676;DHT22;59069;52.242;20.900;2023-08-17T03:38:54;24.95;69.44
70676;DHT22;59069;52.242;20.900;2023-08-17T03:41:21;24.93;69.56
70676;DHT22;59069;52.242;20.900;2023-08-17T03:43:48;24.93;69.65
70676;DHT22;59069;52.242;20.900;2023-08-17T03:46:14;24.95;69.66
70676;DHT22;59069;52.242;20.900;2023-08-17T03:48:39;24.93;69.71
70676;DHT22;59069;52.242;20.900;2023-08-17T03:51:05;24.96;69.77
70676;DHT22;59069;52.242;20.900;2023-08-17T03:53:30;24.95;69.77
70676;DHT22;59069;52.242;20.900;2023-08-17T03:55:55;24.96;69.72
70676;DHT22;59069;52.242;20.900;2023-08-17T03:58:21;24.93;69.64
70676;DHT22;59069;52.242;20.900;2023-08-17T04:00:50;24.95;69.57
70676;DHT22;59069;52.242;20.900;2023-08-17T04:03:16;24.93;69.35
70676;DHT22;59069;52.242;20.900;2023-08-17T04:05:42;24.93;69.23
70676;DHT22;59069;52.242;20.900;2023-08-17T04:08:08;24.93;69.20
70676;DHT22;59069;52.242;20.900;2023-08-17T04:10:33;24.93;69.07
70676;DHT22;59069;52.242;20.900;2023-08-17T04:12:59;24.95;69.02
70676;DHT22;59069;52.242;20.900;2023-08-17T04:15:24;24.96;68.84
70676;DHT22;59069;52.242;20.900;2023-08-17T04:17:50;24.92;68.56
70676;DHT22;59069;52.242;20.900;2023-08-17T04:20:15;24.95;68.25
70676;DHT22;59069;52.242;20.900;2023-08-17T04:22:41;24.96;68.03
70676;DHT22;59069;52.242;20.900;2023-08-17T04:25:06;24.99;67.72
70676;DHT22;59069;52.242;20.900;2023-08-17T04:27:32;24.99;67.46
70676;DHT22;59069;52.242;20.900;2023-08-17T04:29:58;25.00;67.27
70676;DHT22;59069;52.242;20.900;2023-08-17T04:32:23;25.02;67.04
70676;DHT22;59069;52.242;20.900;2023-08-17T04:34:49;25.03;66.88
70676;DHT22;59069;52.242;20.900;2023-08-17T04:37:14;25.08;66.71
70676;DHT22;59069;52.242;20.900;2023-08-17T04:39:40;25.10;66.41
70676;DHT22;59069;52.242;20.900;2023-08-17T04:42:06;25.13;66.04
70676;DHT22;59069;52.242;20.900;2023-08-17T04:44:32;25.15;65.51
70676;DHT22;59069;52.242;20.900;2023-08-17T04:46:57;25.18;65.21
70676;DHT22;59069;52.242;20.900;2023-08-17T04:49:23;25.20;64.85
70676;DHT22;59069;52.242;20.900;2023-08-17T04:51:48;25.22;64.56
70676;DHT22;59069;52.242;20.900;2023-08-17T04:54:13;25.24;64.16
70676;DHT22;59069;52.242;20.900;2023-08-17T04:56:39;25.27;63.99
70676;DHT22;59069;52.242;20.900;2023-08-17T04:59:04;25.29;63.80
70676;DHT22;59069;52.242;20.900;2023-08-17T05:01:29;25.31;63.54
70676;DHT22;59069;52.242;20.900;2023-08-17T05:03:55;25.34;63.34
70676;DHT22;59069;52.242;20.900;2023-08-17T05:06:20;25.36;62.94
70676;DHT22;59069;52.242;20.900;2023-08-17T05:08:46;25.36;62.70
70676;DHT22;59069;52.242;20.900;2023-08-17T05:11:11;25.37;62.52
70676;DHT22;59069;52.242;20.900;2023-08-17T05:13:37;25.40;62.37
70676;DHT22;59069;52.242;20.900;2023-08-17T05:16:03;25.43;62.22
70676;DHT22;59069;52.242;20.900;2023-08-17T05:18:29;25.41;62.15
70676;DHT22;59069;52.242;20.900;2023-08-17T05:20:54;25.46;62.03
70676;DHT22;59069;52.242;20.900;2023-08-17T05:23:19;25.41;61.80
70676;DHT22;59069;52.242;20.900;2023-08-17T05:25:48;25.43;61.74
70676;DHT22;59069;52.242;20.900;2023-08-17T05:28:14;25.43;61.70
70676;DHT22;59069;52.242;20.900;2023-08-17T05:30:39;25.41;61.68
70676;DHT22;59069;52.242;20.900;2023-08-17T05:33:05;25.40;61.67
70676;DHT22;59069;52.242;20.900;2023-08-17T05:35:31;25.37;61.71
70676;DHT22;59069;52.242;20.900;2023-08-17T05:37:56;25.37;61.63
70676;DHT22;59069;52.242;20.900;2023-08-17T05:40:22;25.36;61.69
70676;DHT22;59069;52.242;20.900;2023-08-17T05:42:47;25.36;61.69
70676;DHT22;59069;52.242;20.900;2023-08-17T05:45:13;25.36;61.62
70676;DHT22;59069;52.242;20.900;2023-08-17T05:47:38;25.36;61.60
70676;DHT22;59069;52.242;20.900;2023-08-17T05:50:04;25.36;61.54
70676;DHT22;59069;52.242;20.900;2023-08-17T05:52:29;25.40;61.42
70676;DHT22;59069;52.242;20.900;2023-08-17T05:54:54;25.41;61.39
70676;DHT22;59069;52.242;20.900;2023-08-17T05:57:20;25.44;61.19
70676;DHT22;59069;52.242;20.900;2023-08-17T05:59:45;25.47;60.97
70676;DHT22;59069;52.242;20.900;2023-08-17T06:02:10;25.51;60.79
70676;DHT22;59069;52.242;20.900;2023-08-17T06:04:36;25.54;60.62
70676;DHT22;59069;52.242;20.900;2023-08-17T06:07:01;25.57;60.57
70676;DHT22;59069;52.242;20.900;2023-08-17T06:09:27;25.61;60.44
70676;DHT22;59069;52.242;20.900;2023-08-17T06:11:52;25.64;60.29
70676;DHT22;59069;52.242;20.900;2023-08-17T06:14:17;25.68;60.23
70676;DHT22;59069;52.242;20.900;2023-08-17T06:16:43;25.68;60.06
70676;DHT22;59069;52.242;20.900;2023-08-17T06:19:08;25.71;59.88
70676;DHT22;59069;52.242;20.900;2023-08-17T06:21:34;25.78;59.79
70676;DHT22;59069;52.242;20.900;2023-08-17T06:23:59;25.84;59.58
70676;DHT22;59069;52.242;20.900;2023-08-17T06:26:24;25.90;59.38
70676;DHT22;59069;52.242;20.900;2023-08-17T06:28:50;25.98;59.08
70676;DHT22;59069;52.242;20.900;2023-08-17T06:31:15;26.04;58.86
70676;DHT22;59069;52.242;20.900;2023-08-17T06:33:41;26.11;58.55
70676;DHT22;59069;52.242;20.900;2023-08-17T06:36:06;26.14;58.27
70676;DHT22;59069;52.242;20.900;2023-08-17T06:38:31;26.17;58.21
70676;DHT22;59069;52.242;20.900;2023-08-17T06:40:57;26.21;58.06
70676;DHT22;59069;52.242;20.900;2023-08-17T06:43:22;26.24;57.94
70676;DHT22;59069;52.242;20.900;2023-08-17T06:45:47;26.26;57.97
70676;DHT22;59069;52.242;20.900;2023-08-17T06:48:13;26.29;57.93
70676;DHT22;59069;52.242;20.900;2023-08-17T06:50:38;26.31;57.95
70676;DHT22;59069;52.242;20.900;2023-08-17T06:53:04;26.33;57.96
70676;DHT22;59069;52.242;20.900;2023-08-17T06:55:30;26.39;57.94
70676;DHT22;59069;52.242;20.900;2023-08-17T06:57:55;26.42;58.02
70676;DHT22;59069;52.242;20.900;2023-08-17T07:00:21;26.45;57.91
70676;DHT22;59069;52.242;20.900;2023-08-17T07:02:47;26.45;57.81
70676;DHT22;59069;52.242;20.900;2023-08-17T07:05:14;26.50;57.80
70676;DHT22;59069;52.242;20.900;2023-08-17T07:07:40;26.55;57.88
70676;DHT22;59069;52.242;20.900;2023-08-17T07:10:06;26.60;57.78
70676;DHT22;59069;52.242;20.900;2023-08-17T07:12:32;26.66;57.80
70676;DHT22;59069;52.242;20.900;2023-08-17T07:14:58;26.69;57.57
70676;DHT22;59069;52.242;20.900;2023-08-17T07:17:23;26.73;57.53
70676;DHT22;59069;52.242;20.900;2023-08-17T07:19:49;26.75;57.54
70676;DHT22;59069;52.242;20.900;2023-08-17T07:22:14;26.82;57.57
70676;DHT22;59069;52.242;20.900;2023-08-17T07:24:41;26.91;57.50
70676;DHT22;59069;52.242;20.900;2023-08-17T07:27:07;26.99;57.34
70676;DHT22;59069;52.242;20.900;2023-08-17T07:29:32;27.08;57.14
70676;DHT22;59069;52.242;20.900;2023-08-17T07:31:58;27.21;56.81
70676;DHT22;59069;52.242;20.900;2023-08-17T07:34:30;27.26;56.54
70676;DHT22;59069;52.242;20.900;2023-08-17T07:36:56;27.30;56.28
70676;DHT22;59069;52.242;20.900;2023-08-17T07:39:22;27.33;56.33
70676;DHT22;59069;52.242;20.900;2023-08-17T07:41:47;27.33;56.25
70676;DHT22;59069;52.242;20.900;2023-08-17T07:44:12;27.30;56.38
70676;DHT22;59069;52.242;20.900;2023-08-17T07:46:38;27.27;56.49
70676;DHT22;59069;52.242;20.900;2023-08-17T07:49:03;27.31;56.70
70676;DHT22;59069;52.242;20.900;2023-08-17T07:51:29;27.27;56.63
70676;DHT22;59069;52.242;20.900;2023-08-17T07:53:57;27.33;56.48
70676;DHT22;59069;52.242;20.900;2023-08-17T07:56:22;27.34;56.24
70676;DHT22;59069;52.242;20.900;2023-08-17T07:58:47;27.44;56.43
70676;DHT22;59069;52.242;20.900;2023-08-17T08:01:13;27.52;56.36
70676;DHT22;59069;52.242;20.900;2023-08-17T08:03:38;27.61;56.27
70676;DHT22;59069;52.242;20.900;2023-08-17T08:06:03;27.66;55.85
70676;DHT22;59069;52.242;20.900;2023-08-17T08:08:29;27.73;55.52
70676;DHT22;59069;52.242;20.900;2023-08-17T08:10:54;27.82;55.40
70676;DHT22;59069;52.242;20.900;2023-08-17T08:13:20;27.89;55.02
70676;DHT22;59069;52.242;20.900;2023-08-17T08:15:45;27.93;54.60
70676;DHT22;59069;52.242;20.900;2023-08-17T08:18:11;27.98;54.36
70676;DHT22;59069;52.242;20.900;2023-08-17T08:20:37;27.99;54.23
70676;DHT22;59069;52.242;20.900;2023-08-17T08:23:02;28.01;54.15
70676;DHT22;59069;52.242;20.900;2023-08-17T08:25:28;28.02;54.07
70676;DHT22;59069;52.242;20.900;2023-08-17T08:27:53;28.12;54.09
70676;DHT22;59069;52.242;20.900;2023-08-17T08:30:19;28.17;53.93
70676;DHT22;59069;52.242;20.900;2023-08-17T08:32:44;28.20;53.87
70676;DHT22;59069;52.242;20.900;2023-08-17T08:35:10;28.30;54.01
70676;DHT22;59069;52.242;20.900;2023-08-17T08:37:35;28.40;53.97
70676;DHT22;59069;52.242;20.900;2023-08-17T08:40:00;28.53;54.05
70676;DHT22;59069;52.242;20.900;2023-08-17T08:42:26;28.71;54.16
70676;DHT22;59069;52.242;20.900;2023-08-17T08:44:51;28.95;53.84
70676;DHT22;59069;52.242;20.900;2023-08-17T08:47:17;29.24;52.51
70676;DHT22;59069;52.242;20.900;2023-08-17T08:49:54;29.58;52.69
70676;DHT22;59069;52.242;20.900;2023-08-17T08:52:23;30.03;52.61
70676;DHT22;59069;52.242;20.900;2023-08-17T08:54:54;30.64;51.23
70676;DHT22;59069;52.242;20.900;2023-08-17T08:57:21;31.09;47.98
70676;DHT22;59069;52.242;20.900;2023-08-17T08:59:47;31.49;47.46
70676;DHT22;59069;52.242;20.900;2023-08-17T09:02:16;31.73;45.14
70676;DHT22;59069;52.242;20.900;2023-08-17T09:04:45;31.84;45.00
70676;DHT22;59069;52.242;20.900;2023-08-17T09:07:12;32.01;46.12
70676;DHT22;59069;52.242;20.900;2023-08-17T09:09:38;32.34;47.16
70676;DHT22;59069;52.242;20.900;2023-08-17T09:12:04;32.78;46.40
70676;DHT22;59069;52.242;20.900;2023-08-17T09:14:32;33.27;44.45
70676;DHT22;59069;52.242;20.900;2023-08-17T09:16:57;33.77;42.48
70676;DHT22;59069;52.242;20.900;2023-08-17T09:19:24;34.01;39.50
70676;DHT22;59069;52.242;20.900;2023-08-17T09:21:50;33.97;40.13
70676;DHT22;59069;52.242;20.900;2023-08-17T09:24:16;33.91;41.77
70676;DHT22;59069;52.242;20.900;2023-08-17T09:26:41;33.80;40.21
70676;DHT22;59069;52.242;20.900;2023-08-17T09:29:20;33.73;40.48
70676;DHT22;59069;52.242;20.900;2023-08-17T09:31:46;33.75;40.87
70676;DHT22;59069;52.242;20.900;2023-08-17T09:34:14;33.81;41.66
70676;DHT22;59069;52.242;20.900;2023-08-17T09:36:39;34.02;41.54
70676;DHT22;59069;52.242;20.900;2023-08-17T09:39:05;34.35;39.64
70676;DHT22;59069;52.242;20.900;2023-08-17T09:41:38;34.60;40.16
70676;DHT22;59069;52.242;20.900;2023-08-17T09:44:04;34.67;39.10
70676;DHT22;59069;52.242;20.900;2023-08-17T09:46:29;34.62;38.82
70676;DHT22;59069;52.242;20.900;2023-08-17T09:48:55;34.45;39.39
70676;DHT22;59069;52.242;20.900;2023-08-17T09:51:20;34.32;40.15
70676;DHT22;59069;52.242;20.900;2023-08-17T09:53:52;34.19;39.97
70676;DHT22;59069;52.242;20.900;2023-08-17T09:56:20;34.15;40.50
70676;DHT22;59069;52.242;20.900;2023-08-17T09:58:47;34.09;39.80
70676;DHT22;59069;52.242;20.900;2023-08-17T10:01:12;34.00;40.59
70676;DHT22;59069;52.242;20.900;2023-08-17T10:03:42;34.01;40.70
70676;DHT22;59069;52.242;20.900;2023-08-17T10:06:09;33.94;41.08
70676;DHT22;59069;52.242;20.900;2023-08-17T10:08:47;33.81;40.08
70676;DHT22;59069;52.242;20.900;2023-08-17T10:11:18;33.67;40.54
70676;DHT22;59069;52.242;20.900;2023-08-17T10:14:01;33.68;41.17
70676;DHT22;59069;52.242;20.900;2023-08-17T10:17:01;33.85;40.99
70676;DHT22;59069;52.242;20.900;2023-08-17T10:19:37;33.97;39.08
70676;DHT22;59069;52.242;20.900;2023-08-17T10:24:36;34.05;37.84
70676;DHT22;59069;52.242;20.900;2023-08-17T10:27:04;34.01;38.69
70676;DHT22;59069;52.242;20.900;2023-08-17T10:29:31;33.98;37.94
70676;DHT22;59069;52.242;20.900;2023-08-17T10:31:57;33.93;36.36
70676;DHT22;59069;52.242;20.900;2023-08-17T10:34:22;34.00;36.10
70676;DHT22;59069;52.242;20.900;2023-08-17T10:36:48;34.19;35.80
70676;DHT22;59069;52.242;20.900;2023-08-17T10:39:21;34.41;36.39
70676;DHT22;59069;52.242;20.900;2023-08-17T10:41:51;34.67;36.48
70676;DHT22;59069;52.242;20.900;2023-08-17T10:44:17;34.93;35.16
70676;DHT22;59069;52.242;20.900;2023-08-17T10:46:44;35.16;34.86
70676;DHT22;59069;52.242;20.900;2023-08-17T10:49:26;35.38;34.25
70676;DHT22;59069;52.242;20.900;2023-08-17T10:52:04;35.68;33.72
70676;DHT22;59069;52.242;20.900;2023-08-17T10:54:39;35.75;32.80
70676;DHT22;59069;52.242;20.900;2023-08-17T11:00:13;35.59;32.59
70676;DHT22;59069;52.242;20.900;2023-08-17T11:02:39;35.61;32.44
70676;DHT22;59069;52.242;20.900;2023-08-17T11:05:05;35.54;32.64
70676;DHT22;59069;52.242;20.900;2023-08-17T11:07:42;35.43;32.55
70676;DHT22;59069;52.242;20.900;2023-08-17T11:12:44;35.20;31.90
70676;DHT22;59069;52.242;20.900;2023-08-17T11:15:09;35.23;31.75
70676;DHT22;59069;52.242;20.900;2023-08-17T11:17:35;35.24;31.93
70676;DHT22;59069;52.242;20.900;2023-08-17T11:20:00;35.33;31.73
70676;DHT22;59069;52.242;20.900;2023-08-17T11:22:25;35.57;31.94
70676;DHT22;59069;52.242;20.900;2023-08-17T11:24:51;35.85;31.01
70676;DHT22;59069;52.242;20.900;2023-08-17T11:27:16;36.24;31.35
70676;DHT22;59069;52.242;20.900;2023-08-17T11:29:42;36.72;30.45
70676;DHT22;59069;52.242;20.900;2023-08-17T11:32:08;36.93;29.66
70676;DHT22;59069;52.242;20.900;2023-08-17T11:34:35;37.07;29.01
70676;DHT22;59069;52.242;20.900;2023-08-17T11:37:01;37.48;30.40
70676;DHT22;59069;52.242;20.900;2023-08-17T11:39:26;38.37;30.52
70676;DHT22;59069;52.242;20.900;2023-08-17T11:41:52;38.98;26.39
70676;DHT22;59069;52.242;20.900;2023-08-17T11:44:18;39.45;25.75
70676;DHT22;59069;52.242;20.900;2023-08-17T11:46:46;40.06;24.83
70676;DHT22;59069;52.242;20.900;2023-08-17T11:49:12;40.54;23.89
70676;DHT22;59069;52.242;20.900;2023-08-17T11:51:38;40.54;22.71
70676;DHT22;59069;52.242;20.900;2023-08-17T11:54:04;40.32;22.55
70676;DHT22;59069;52.242;20.900;2023-08-17T11:56:33;40.13;22.95
70676;DHT22;59069;52.242;20.900;2023-08-17T11:59:08;40.09;23.35
70676;DHT22;59069;52.242;20.900;2023-08-17T12:01:36;39.73;23.51
70676;DHT22;59069;52.242;20.900;2023-08-17T12:04:04;39.25;24.15
70676;DHT22;59069;52.242;20.900;2023-08-17T12:06:30;38.77;24.58
70676;DHT22;59069;52.242;20.900;2023-08-17T12:08:56;38.45;25.36
70676;DHT22;59069;52.242;20.900;2023-08-17T12:11:24;38.33;25.69
70676;DHT22;59069;52.242;20.900;2023-08-17T12:13:51;38.32;25.46
70676;DHT22;59069;52.242;20.900;2023-08-17T12:16:17;38.17;25.24
70676;DHT22;59069;52.242;20.900;2023-08-17T12:18:52;38.08;25.45
70676;DHT22;59069;52.242;20.900;2023-08-17T12:21:24;37.81;25.71
70676;DHT22;59069;52.242;20.900;2023-08-17T12:23:51;37.54;26.08
70676;DHT22;59069;52.242;20.900;2023-08-17T12:26:20;37.34;26.78
70676;DHT22;59069;52.242;20.900;2023-08-17T12:28:45;37.16;26.85
70676;DHT22;59069;52.242;20.900;2023-08-17T12:31:11;36.93;26.84
70676;DHT22;59069;52.242;20.900;2023-08-17T12:33:36;36.73;27.31
70676;DHT22;59069;52.242;20.900;2023-08-17T12:36:02;36.63;27.55
70676;DHT22;59069;52.242;20.900;2023-08-17T12:38:27;36.60;27.36
70676;DHT22;59069;52.242;20.900;2023-08-17T12:40:53;36.46;27.23
70676;DHT22;59069;52.242;20.900;2023-08-17T12:43:18;36.55;27.58
70676;DHT22;59069;52.242;20.900;2023-08-17T12:45:44;36.67;27.59
70676;DHT22;59069;52.242;20.900;2023-08-17T12:48:09;36.96;27.52
70676;DHT22;59069;52.242;20.900;2023-08-17T12:50:34;37.21;27.00
70676;DHT22;59069;52.242;20.900;2023-08-17T12:53:00;37.47;26.99
70676;DHT22;59069;52.242;20.900;2023-08-17T12:55:25;37.93;26.41
70676;DHT22;59069;52.242;20.900;2023-08-17T12:57:50;38.11;25.94
70676;DHT22;59069;52.242;20.900;2023-08-17T13:00:16;38.39;26.06
70676;DHT22;59069;52.242;20.900;2023-08-17T13:02:41;38.94;25.27
70676;DHT22;59069;52.242;20.900;2023-08-17T13:05:07;39.55;24.71
70676;DHT22;59069;52.242;20.900;2023-08-17T13:07:32;40.16;24.19
70676;DHT22;59069;52.242;20.900;2023-08-17T13:09:58;39.86;23.36
70676;DHT22;59069;52.242;20.900;2023-08-17T13:12:23;39.65;23.79
70676;DHT22;59069;52.242;20.900;2023-08-17T13:14:48;39.38;24.00
70676;DHT22;59069;52.242;20.900;2023-08-17T13:17:14;39.46;24.74
70676;DHT22;59069;52.242;20.900;2023-08-17T13:19:41;40.54;24.29
70676;DHT22;59069;52.242;20.900;2023-08-17T13:22:07;41.25;22.48
70676;DHT22;59069;52.242;20.900;2023-08-17T13:24:32;42.30;22.12
70676;DHT22;59069;52.242;20.900;2023-08-17T13:26:57;42.65;20.94
70676;DHT22;59069;52.242;20.900;2023-08-17T13:29:23;42.08;20.76
70676;DHT22;59069;52.242;20.900;2023-08-17T13:31:48;41.12;21.79
70676;DHT22;59069;52.242;20.900;2023-08-17T13:34:14;41.90;23.31
70676;DHT22;59069;52.242;20.900;2023-08-17T13:36:39;42.68;22.39
70676;DHT22;59069;52.242;20.900;2023-08-17T13:39:06;44.17;21.16
70676;DHT22;59069;52.242;20.900;2023-08-17T13:41:31;45.81;19.73
70676;DHT22;59069;52.242;20.900;2023-08-17T13:43:57;46.79;18.60
70676;DHT22;59069;52.242;20.900;2023-08-17T13:46:23;47.37;17.98
70676;DHT22;59069;52.242;20.900;2023-08-17T13:48:48;47.50;18.01
70676;DHT22;59069;52.242;20.900;2023-08-17T13:51:13;47.90;17.44
70676;DHT22;59069;52.242;20.900;2023-08-17T13:53:39;48.11;17.18
70676;DHT22;59069;52.242;20.900;2023-08-17T13:56:05;47.83;17.07
70676;DHT22;59069;52.242;20.900;2023-08-17T13:58:30;47.84;17.57
70676;DHT22;59069;52.242;20.900;2023-08-17T14:00:55;48.21;17.56
70676;DHT22;59069;52.242;20.900;2023-08-17T14:03:21;48.52;17.20
70676;DHT22;59069;52.242;20.900;2023-08-17T14:05:46;48.74;17.01
70676;DHT22;59069;52.242;20.900;2023-08-17T14:08:11;48.91;16.77
70676;DHT22;59069;52.242;20.900;2023-08-17T14:10:37;49.22;16.81
70676;DHT22;59069;52.242;20.900;2023-08-17T14:13:02;49.39;16.80
70676;DHT22;59069;52.242;20.900;2023-08-17T14:15:28;48.85;17.16
70676;DHT22;59069;52.242;20.900;2023-08-17T14:17:53;49.02;17.07
70676;DHT22;59069;52.242;20.900;2023-08-17T14:20:19;48.85;16.96
70676;DHT22;59069;52.242;20.900;2023-08-17T14:22:44;47.69;17.14
70676;DHT22;59069;52.242;20.900;2023-08-17T14:25:10;46.32;18.66
70676;DHT22;59069;52.242;20.900;2023-08-17T14:27:35;46.62;19.17
70676;DHT22;59069;52.242;20.900;2023-08-17T14:30:00;47.20;19.03
70676;DHT22;59069;52.242;20.900;2023-08-17T14:32:28;47.53;18.41
70676;DHT22;59069;52.242;20.900;2023-08-17T14:34:54;47.50;17.94
70676;DHT22;59069;52.242;20.900;2023-08-17T14:37:19;47.50;17.79
70676;DHT22;59069;52.242;20.900;2023-08-17T14:39:45;47.15;17.89
70676;DHT22;59069;52.242;20.900;2023-08-17T14:42:12;46.41;18.46
70676;DHT22;59069;52.242;20.900;2023-08-17T14:44:37;46.50;18.43
70676;DHT22;59069;52.242;20.900;2023-08-17T14:47:03;46.95;18.65
70676;DHT22;59069;52.242;20.900;2023-08-17T14:49:29;47.35;18.02
70676;DHT22;59069;52.242;20.900;2023-08-17T14:51:54;47.52;17.77
70676;DHT22;59069;52.242;20.900;2023-08-17T14:54:19;47.52;17.56
70676;DHT22;59069;52.242;20.900;2023-08-17T14:56:45;47.42;17.72
70676;DHT22;59069;52.242;20.900;2023-08-17T14:59:10;46.83;17.84
70676;DHT22;59069;52.242;20.900;2023-08-17T15:01:36;45.22;18.33
70676;DHT22;59069;52.242;20.900;2023-08-17T15:04:01;43.36;19.63
70676;DHT22;59069;52.242;20.900;2023-08-17T15:06:26;41.87;20.90
70676;DHT22;59069;52.242;20.900;2023-08-17T15:08:52;40.83;22.11
70676;DHT22;59069;52.242;20.900;2023-08-17T15:11:18;40.40;23.60
70676;DHT22;59069;52.242;20.900;2023-08-17T15:13:43;40.29;23.69
70676;DHT22;59069;52.242;20.900;2023-08-17T15:16:10;40.07;23.91
70676;DHT22;59069;52.242;20.900;2023-08-17T15:18:35;39.75;24.18
70676;DHT22;59069;52.242;20.900;2023-08-17T15:21:01;39.41;24.40